Time;durP1;ratioP1;P1;durP2;ratioP2;P2;SDS_P1;SDS_P2;PMS_P1;PMS_P2;Temp;Humidity;BMP_temperature;BMP_pressure;BME280_temperature;BME280_humidity;BME280_pressure;Samples;Min_cycle;Max_cycle;Signal;HPM_P1;HPM_P2
2023/06/16 00:00:37;;;;;;;7.68;4.78;;;18.60;99.90;;;;;;5073496;28;20119;-68
2023/06/16 00:03:03;;;;;;;5.43;3.92;;;18.50;99.90;;;;;;5073103;28;20032;-68
2023/06/16 00:05:29;;;;;;;7.47;4.40;;;18.50;99.90;;;;;;5073526;28;20500;-67
2023/06/16 00:07:59;;;;;;;6.72;4.63;;;18.40;99.90;;;;;;5073193;28;20032;-68
2023/06/16 00:10:25;;;;;;;5.47;4.35;;;18.40;99.90;;;;;;5073107;28;20024;-68
2023/06/16 00:12:50;;;;;;;7.90;4.80;;;18.30;99.90;;;;;;5073295;28;20075;-67
2023/06/16 00:15:16;;;;;;;7.20;4.88;;;18.30;99.90;;;;;;5073352;28;20360;-67
2023/06/16 00:17:46;;;;;;;5.05;4.53;;;18.30;99.90;;;;;;5073378;28;20102;-67
2023/06/16 00:20:14;;;;;;;5.60;4.18;;;18.20;99.90;;;;;;5073336;28;20428;-67
2023/06/16 00:22:41;;;;;;;7.03;4.38;;;18.10;1.00;;;;;;5073386;28;20059;-67
2023/06/16 00:25:08;;;;;;;6.47;4.55;;;18.10;1.00;;;;;;5073116;28;20550;-67
2023/06/16 00:27:35;;;;;;;8.35;4.95;;;18.00;1.00;;;;;;5073202;28;20059;-68
2023/06/16 00:30:02;;;;;;;6.00;4.80;;;18.00;1.00;;;;;;5073188;28;20036;-67
2023/06/16 00:32:28;;;;;;;8.60;5.22;;;17.90;1.00;;;;;;5072763;28;20032;-67
2023/06/16 00:34:53;;;;;;;9.15;5.53;;;17.90;1.00;;;;;;5073235;28;20042;-67
2023/06/16 00:37:19;;;;;;;10.90;5.07;;;17.90;1.00;;;;;;5073238;28;20025;-67
2023/06/16 00:39:44;;;;;;;7.38;4.70;;;17.90;1.00;;;;;;5072846;28;20045;-68
2023/06/16 00:42:10;;;;;;;5.93;4.53;;;17.80;1.00;;;;;;5073054;28;20036;-67
2023/06/16 00:44:35;;;;;;;9.60;4.93;;;17.80;1.00;;;;;;5073058;28;20506;-68
2023/06/16 00:47:02;;;;;;;5.90;4.75;;;17.80;1.00;;;;;;5072938;28;20494;-67
2023/06/16 00:49:28;;;;;;;6.82;4.63;;;17.80;1.00;;;;;;5073122;28;20478;-67
2023/06/16 00:51:54;;;;;;;6.45;5.43;;;17.70;1.00;;;;;;5073093;28;20077;-67
2023/06/16 00:54:21;;;;;;;9.43;5.13;;;17.60;1.00;;;;;;5073058;28;20021;-67
2023/06/16 00:56:47;;;;;;;7.50;5.40;;;17.60;1.00;;;;;;5073099;28;20033;-67
2023/06/16 00:59:12;;;;;;;9.43;5.10;;;17.50;31.10;;;;;;5072634;28;20020;-67
2023/06/16 01:01:38;;;;;;;8.40;5.43;;;17.40;35.40;;;;;;5072947;28;20033;-67
2023/06/16 01:04:04;;;;;;;9.27;5.22;;;17.40;15.30;;;;;;5073004;28;20036;-67
2023/06/16 01:09:39;;;;;;;9.32;5.35;;;17.30;1.00;;;;;;5090938;28;20435;-67
2023/06/16 01:12:38;;;;;;;7.20;5.25;;;17.20;57.90;;;;;;5090566;28;20457;-67
2023/06/16 01:15:11;;;;;;;6.05;5.43;;;17.10;41.00;;;;;;5090843;28;20025;-67
2023/06/16 01:17:44;;;;;;;6.13;5.32;;;17.00;39.00;;;;;;5090909;28;20477;-67
2023/06/16 01:20:17;;;;;;;9.55;5.25;;;17.10;9.00;;;;;;5090798;28;20477;-67
2023/06/16 01:22:55;;;;;;;9.05;5.32;;;17.00;7.90;;;;;;5090914;28;20523;-67
2023/06/16 01:25:23;;;;;;;7.53;4.90;;;16.90;7.40;;;;;;5090529;28;20024;-67
2023/06/16 01:27:52;;;;;;;8.23;5.45;;;16.80;22.10;;;;;;5090584;28;20028;-67
2023/06/16 01:30:22;;;;;;;7.05;4.97;;;16.80;46.00;;;;;;5090555;28;20028;-67
2023/06/16 01:32:52;;;;;;;8.82;5.30;;;16.70;56.50;;;;;;5090579;28;20107;-67
2023/06/16 01:35:20;;;;;;;13.57;5.55;;;16.60;75.70;;;;;;5090553;28;20478;-68
2023/06/16 01:37:47;;;;;;;8.73;5.45;;;16.50;99.90;;;;;;5090492;28;20032;-67
2023/06/16 01:40:13;;;;;;;6.35;4.95;;;16.40;99.90;;;;;;5090397;28;20035;-67
2023/06/16 01:42:39;;;;;;;6.20;4.70;;;16.30;99.90;;;;;;5089994;28;20032;-67
2023/06/16 01:45:05;;;;;;;8.63;4.88;;;16.20;99.90;;;;;;5090301;28;20032;-67
2023/06/16 01:47:31;;;;;;;11.18;5.22;;;16.10;99.90;;;;;;5089848;28;20028;-67
2023/06/16 01:49:57;;;;;;;6.13;4.80;;;16.00;99.90;;;;;;5089854;28;20025;-67
2023/06/16 01:52:23;;;;;;;7.57;5.07;;;15.80;99.90;;;;;;5090283;28;20025;-67
2023/06/16 01:54:48;;;;;;;7.80;4.88;;;15.80;1.00;;;;;;5090165;28;20486;-67
2023/06/16 01:57:14;;;;;;;7.50;4.97;;;15.70;13.20;;;;;;5090149;28;20028;-68
2023/06/16 01:59:40;;;;;;;6.10;4.43;;;15.60;99.90;;;;;;5089873;28;20032;-67
2023/06/16 02:02:14;;;;;;;4.93;4.32;;;15.50;99.90;;;;;;5089826;28;20028;-67
2023/06/16 02:04:45;;;;;;;6.50;5.13;;;15.40;99.90;;;;;;5089750;28;20024;-67
2023/06/16 02:07:14;;;;;;;6.95;5.32;;;15.30;1.00;;;;;;5089527;28;20045;-67
2023/06/16 02:09:41;;;;;;;8.70;5.55;;;15.20;1.00;;;;;;5089818;28;20428;-67
2023/06/16 02:12:11;;;;;;;6.03;4.60;;;15.10;1.00;;;;;;5089735;28;20024;-67
2023/06/16 02:14:38;;;;;;;5.80;4.88;;;15.00;99.90;;;;;;5089353;28;20073;-67
2023/06/16 02:17:05;;;;;;;8.57;5.43;;;14.90;99.90;;;;;;5089536;28;20067;-67
2023/06/16 02:19:32;;;;;;;5.97;4.78;;;14.90;99.90;;;;;;5082038;28;20044;-67
2023/06/16 02:21:58;;;;;;;5.75;4.82;;;14.80;99.90;;;;;;5076209;28;20024;-67
2023/06/16 02:24:24;;;;;;;6.68;5.63;;;14.70;99.90;;;;;;5076136;28;20028;-67
2023/06/16 02:26:49;;;;;;;7.47;5.72;;;14.70;99.90;;;;;;5076045;28;20029;-67
2023/06/16 02:29:16;;;;;;;5.47;4.93;;;14.60;99.90;;;;;;5076494;28;20028;-67
2023/06/16 02:31:47;;;;;;;7.35;5.50;;;14.60;1.00;;;;;;5075763;28;20020;-67
2023/06/16 02:34:12;;;;;;;8.63;5.45;;;14.50;1.00;;;;;;5075830;28;20513;-67
2023/06/16 02:36:38;;;;;;;6.75;5.28;;;14.50;78.70;;;;;;5075836;28;20062;-67
2023/06/16 02:39:03;;;;;;;5.75;5.15;;;14.30;99.90;;;;;;5075759;28;20029;-67
2023/06/16 02:41:29;;;;;;;9.57;4.93;;;14.30;99.90;;;;;;5075589;28;20099;-67
2023/06/16 02:43:55;;;;;;;7.00;5.53;;;14.20;99.90;;;;;;5075222;28;20082;-67
2023/06/16 02:46:21;;;;;;;7.20;5.47;;;14.20;1.00;;;;;;5075829;28;20036;-67
2023/06/16 02:48:47;;;;;;;6.45;4.88;;;14.20;99.90;;;;;;5075479;28;20031;-67
2023/06/16 02:51:12;;;;;;;6.43;5.30;;;14.10;99.90;;;;;;5075423;28;20020;-67
2023/06/16 02:53:39;;;;;;;7.90;5.25;;;14.00;99.90;;;;;;5075136;28;20529;-67
2023/06/16 02:56:04;;;;;;;7.22;6.00;;;14.00;1.00;;;;;;5075445;28;20021;-69
2023/06/16 02:58:30;;;;;;;7.47;5.82;;;13.90;1.00;;;;;;5075509;28;20028;-66
2023/06/16 03:00:56;;;;;;;8.38;5.65;;;13.80;93.80;;;;;;5075306;28;20551;-67
2023/06/16 03:03:21;;;;;;;7.90;6.03;;;13.80;99.90;;;;;;5075409;28;20060;-67
2023/06/16 03:05:47;;;;;;;6.45;5.43;;;13.80;1.00;;;;;;5075329;28;20036;-67
2023/06/16 03:08:12;;;;;;;7.32;5.80;;;13.80;99.90;;;;;;5074943;28;20509;-67
2023/06/16 03:10:38;;;;;;;9.88;5.78;;;13.70;99.90;;;;;;5075222;28;20077;-67
2023/06/16 03:13:03;;;;;;;7.80;6.03;;;13.70;1.00;;;;;;5055185;28;20025;-67
2023/06/16 03:15:30;;;;;;;7.32;6.15;;;13.60;99.90;;;;;;5055059;28;20040;-67
2023/06/16 03:17:56;;;;;;;9.88;6.22;;;13.60;99.90;;;;;;5055021;28;20082;-67
2023/06/16 03:20:22;;;;;;;8.88;6.53;;;13.60;99.90;;;;;;5055094;28;20033;-67
2023/06/16 03:22:48;;;;;;;9.57;7.47;;;13.60;93.60;;;;;;5054970;28;20040;-66
2023/06/16 03:25:15;;;;;;;12.55;6.50;;;13.60;99.90;;;;;;5054916;28;20036;-66
2023/06/16 03:27:41;;;;;;;13.63;6.60;;;13.60;99.90;;;;;;5054601;28;20024;-66
2023/06/16 03:30:08;;;;;;;9.25;6.57;;;13.50;99.90;;;;;;5054464;28;20028;-67
2023/06/16 03:32:35;;;;;;;8.40;6.18;;;13.60;99.90;;;;;;5054119;28;20107;-67
2023/06/16 03:35:02;;;;;;;8.05;6.18;;;13.60;99.90;;;;;;5054811;28;20104;-67
2023/06/16 03:37:27;;;;;;;11.02;7.28;;;13.60;99.90;;;;;;5054712;28;20028;-67
2023/06/16 03:39:53;;;;;;;11.75;6.75;;;13.60;99.90;;;;;;5054690;28;20059;-67
2023/06/16 03:42:19;;;;;;;9.82;6.60;;;13.60;1.00;;;;;;5054415;28;20087;-67
2023/06/16 03:44:44;;;;;;;11.10;6.90;;;13.60;1.00;;;;;;5054598;28;20029;-67
2023/06/16 03:47:10;;;;;;;7.57;6.45;;;13.50;1.00;;;;;;5054354;28;20029;-66
2023/06/16 03:49:36;;;;;;;10.00;6.50;;;13.60;9.90;;;;;;5054481;28;20029;-67
2023/06/16 03:52:01;;;;;;;9.38;6.63;;;13.60;1.00;;;;;;5054471;28;20064;-67
2023/06/16 03:54:27;;;;;;;7.88;6.03;;;13.70;1.00;;;;;;5054424;28;20086;-67
2023/06/16 03:56:52;;;;;;;7.97;6.85;;;13.80;99.90;;;;;;5054165;28;20025;-67
2023/06/16 03:59:18;;;;;;;7.55;5.93;;;13.80;99.90;;;;;;5053912;28;20027;-67
2023/06/16 04:01:46;;;;;;;8.52;6.20;;;13.80;1.00;;;;;;5054168;28;20020;-67
2023/06/16 04:04:12;;;;;;;12.02;6.68;;;13.90;99.90;;;;;;5054178;28;20021;-67
2023/06/16 04:06:38;;;;;;;13.50;6.68;;;13.90;99.90;;;;;;5054072;28;20060;-67
2023/06/16 04:09:04;;;;;;;8.75;6.50;;;14.00;99.90;;;;;;5053593;28;20105;-67
2023/06/16 04:11:30;;;;;;;8.52;6.95;;;14.00;99.90;;;;;;5053885;28;20445;-67
2023/06/16 04:13:56;;;;;;;11.98;6.90;;;14.10;99.90;;;;;;5053918;28;20029;-67
2023/06/16 04:16:21;;;;;;;9.93;6.80;;;14.20;99.90;;;;;;5053813;28;20029;-67
2023/06/16 04:18:48;;;;;;;12.07;6.57;;;14.20;99.90;;;;;;5053902;28;20478;-67
2023/06/16 04:21:15;;;;;;;10.70;7.13;;;14.30;99.90;;;;;;5053602;28;20434;-67
2023/06/16 04:23:40;;;;;;;12.25;6.68;;;14.40;1.00;;;;;;5053798;28;20057;-67
2023/06/16 04:26:07;;;;;;;11.30;7.45;;;14.50;1.00;;;;;;5053749;28;20425;-67
2023/06/16 04:28:33;;;;;;;7.97;6.60;;;14.60;99.90;;;;;;5053448;28;20021;-67
2023/06/16 04:31:00;;;;;;;8.20;6.95;;;14.80;99.90;;;;;;5053443;28;20024;-67
2023/06/16 04:33:26;;;;;;;9.73;6.38;;;15.40;99.90;;;;;;5053494;28;20025;-67
2023/06/16 04:35:52;;;;;;;7.95;6.80;;;16.00;99.90;;;;;;5053606;28;20108;-67
2023/06/16 04:38:19;;;;;;;9.45;7.28;;;16.50;99.90;;;;;;5053750;28;20076;-67
2023/06/16 04:40:45;;;;;;;8.13;6.25;;;17.10;99.90;;;;;;5053732;28;20486;-67
2023/06/16 04:43:11;;;;;;;11.93;7.05;;;18.40;99.90;;;;;;5053283;28;20035;-67
2023/06/16 04:45:36;;;;;;;10.98;7.22;;;20.00;1.00;;;;;;5053547;28;20390;-67
2023/06/16 04:48:02;;;;;;;13.75;7.40;;;21.20;99.90;;;;;;5053337;28;20029;-68
2023/06/16 04:50:27;;;;;;;8.38;6.97;;;21.40;99.90;;;;;;5053216;28;20021;-68
2023/06/16 04:52:54;;;;;;;8.98;6.30;;;21.90;99.90;;;;;;5053295;28;20433;-68
2023/06/16 04:55:20;;;;;;;8.23;6.63;;;22.80;99.90;;;;;;5053473;28;20108;-68
2023/06/16 04:57:46;;;;;;;8.48;6.40;;;23.50;99.90;;;;;;5053350;28;20083;-68
2023/06/16 05:00:12;;;;;;;7.68;5.88;;;23.30;89.80;;;;;;5053256;28;20029;-68
2023/06/16 05:02:38;;;;;;;8.38;5.78;;;23.70;90.90;;;;;;5053114;28;20032;-68
2023/06/16 05:05:04;;;;;;;7.50;5.72;;;23.90;78.40;;;;;;5053271;28;20025;-68
2023/06/16 05:07:31;;;;;;;7.72;5.63;;;23.80;99.90;;;;;;5052637;28;20055;-68
2023/06/16 05:09:57;;;;;;;9.90;6.40;;;24.40;99.90;;;;;;5053135;28;20115;-68
2023/06/16 05:12:24;;;;;;;6.10;5.50;;;24.80;99.90;;;;;;5053238;28;20101;-68
2023/06/16 05:14:50;;;;;;;6.82;5.90;;;23.60;99.90;;;;;;5053281;28;20013;-67
2023/06/16 05:17:15;;;;;;;5.75;5.15;;;23.90;99.90;;;;;;5053191;28;20545;-68
2023/06/16 05:19:41;;;;;;;6.50;5.57;;;24.90;99.90;;;;;;5052765;28;20025;-68
2023/06/16 05:22:06;;;;;;;7.20;5.53;;;25.30;99.90;;;;;;5053079;28;20074;-68
2023/06/16 05:24:32;;;;;;;7.88;5.30;;;26.30;99.90;;;;;;5053134;28;20364;-69
2023/06/16 05:26:57;;;;;;;6.60;5.40;;;26.60;99.90;;;;;;5053063;28;20040;-68
2023/06/16 05:29:23;;;;;;;6.78;5.03;;;26.30;99.90;;;;;;5053162;28;20032;-68
2023/06/16 05:31:49;;;;;;;8.15;5.50;;;26.10;99.90;;;;;;5052907;28;20021;-69
2023/06/16 05:34:14;;;;;;;7.00;4.88;;;26.20;99.90;;;;;;5052985;28;20036;-68
2023/06/16 05:36:40;;;;;;;6.10;4.82;;;26.70;99.90;;;;;;5052746;28;20032;-68
2023/06/16 05:39:07;;;;;;;7.90;5.28;;;27.50;99.90;;;;;;5052825;28;20420;-68
2023/06/16 05:41:34;;;;;;;8.40;5.30;;;27.30;99.90;;;;;;5052697;28;20036;-68
2023/06/16 05:44:01;;;;;;;7.85;5.03;;;27.70;99.90;;;;;;5052977;28;20033;-68
2023/06/16 05:46:27;;;;;;;6.03;5.25;;;26.90;99.90;;;;;;5052604;28;20029;-68
2023/06/16 05:48:54;;;;;;;7.75;5.03;;;26.80;99.90;;;;;;5052689;28;20033;-68
2023/06/16 05:51:20;;;;;;;9.75;5.50;;;26.90;99.90;;;;;;5052717;28;20022;-68
2023/06/16 05:53:45;;;;;;;9.57;5.88;;;26.80;99.90;;;;;;5052463;28;20437;-68
2023/06/16 05:56:11;;;;;;;7.60;5.32;;;26.80;99.90;;;;;;5056586;28;20081;-69
2023/06/16 05:58:36;;;;;;;6.03;5.35;;;26.90;99.90;;;;;;5056589;28;20028;-69
2023/06/16 06:01:03;;;;;;;8.32;5.82;;;27.00;99.90;;;;;;5056384;28;20044;-68
2023/06/16 06:03:29;;;;;;;7.13;5.82;;;26.80;99.90;;;;;;5055244;28;20028;-68
2023/06/16 06:05:56;;;;;;;7.05;5.28;;;27.30;99.90;;;;;;5056475;28;20029;-68
2023/06/16 06:08:26;;;;;;;11.35;5.93;;;27.60;99.90;;;;;;5056006;28;20103;-68
2023/06/16 06:10:52;;;;;;;6.90;6.28;;;27.50;99.90;;;;;;5056056;28;20020;-69
2023/06/16 06:13:17;;;;;;;7.15;5.70;;;27.20;99.90;;;;;;5056352;28;20425;-68
2023/06/16 06:15:43;;;;;;;6.35;5.38;;;27.40;99.90;;;;;;5056262;28;20021;-68
2023/06/16 06:18:09;;;;;;;6.63;5.45;;;27.60;99.90;;;;;;5055985;28;20487;-69
2023/06/16 06:20:34;;;;;;;7.63;5.55;;;28.10;99.90;;;;;;5055939;28;20398;-68
2023/06/16 06:23:00;;;;;;;8.90;5.40;;;28.30;99.90;;;;;;5055994;28;20036;-66
2023/06/16 06:25:25;;;;;;;5.60;5.10;;;28.40;99.90;;;;;;5055774;28;20041;-67
2023/06/16 06:27:51;;;;;;;7.22;5.53;;;27.10;99.90;;;;;;5055793;28;20033;-67
2023/06/16 06:30:17;;;;;;;6.45;5.47;;;27.20;99.90;;;;;;5055778;28;20024;-67
2023/06/16 06:32:42;;;;;;;5.75;5.22;;;27.30;99.90;;;;;;5055718;28;20395;-67
2023/06/16 06:35:08;;;;;;;6.82;5.97;;;28.00;99.90;;;;;;5055840;28;20033;-67
2023/06/16 06:37:34;;;;;;;6.47;5.75;;;28.20;99.90;;;;;;5055095;28;20488;-67
2023/06/16 06:40:00;;;;;;;8.60;6.35;;;27.90;99.90;;;;;;5054886;28;20120;-69
2023/06/16 06:42:27;;;;;;;6.93;6.22;;;27.90;99.90;;;;;;5055525;28;20028;-67
2023/06/16 06:44:53;;;;;;;6.70;6.10;;;27.80;99.90;;;;;;5055720;28;20032;-68
2023/06/16 06:47:21;;;;;;;9.35;6.20;;;27.30;99.90;;;;;;5055369;28;20036;-66
2023/06/16 06:49:46;;;;;;;7.13;6.20;;;27.50;99.90;;;;;;5055501;28;20029;-67
2023/06/16 06:52:12;;;;;;;9.82;5.90;;;28.00;99.90;;;;;;5055505;28;20056;-67
2023/06/16 06:54:37;;;;;;;7.45;5.63;;;28.30;99.90;;;;;;5055257;28;20025;-67
2023/06/16 06:57:03;;;;;;;6.65;5.90;;;28.30;99.90;;;;;;5055174;28;20530;-67
2023/06/16 06:59:29;;;;;;;7.85;5.57;;;28.10;99.90;;;;;;5055442;28;20029;-67
2023/06/16 07:01:54;;;;;;;6.88;5.70;;;27.60;99.90;;;;;;5055222;28;20025;-68
2023/06/16 07:04:20;;;;;;;6.05;5.07;;;27.70;99.90;;;;;;5055210;28;20025;-67
2023/06/16 07:06:46;;;;;;;6.45;5.85;;;27.50;99.90;;;;;;5054886;28;20021;-66
2023/06/16 07:09:11;;;;;;;9.02;5.78;;;27.20;99.90;;;;;;5054727;28;20052;-67
2023/06/16 07:11:37;;;;;;;9.65;6.53;;;27.80;99.90;;;;;;5055072;28;20522;-66
2023/06/16 07:14:04;;;;;;;7.15;6.45;;;26.90;99.90;;;;;;5054951;28;20036;-67
2023/06/16 07:16:30;;;;;;;9.85;6.18;;;27.50;99.90;;;;;;5054847;28;20025;-67
2023/06/16 07:18:55;;;;;;;6.07;5.28;;;27.80;99.90;;;;;;5054879;28;20041;-67
2023/06/16 07:21:21;;;;;;;7.72;5.70;;;28.70;99.90;;;;;;5054791;28;20040;-68
2023/06/16 07:23:46;;;;;;;7.07;6.05;;;28.90;99.90;;;;;;5054695;28;20071;-67
2023/06/16 07:26:12;;;;;;;6.07;5.35;;;28.40;99.90;;;;;;5054641;28;20029;-67
2023/06/16 07:28:38;;;;;;;6.68;4.90;;;28.50;99.90;;;;;;5054561;28;20068;-68
2023/06/16 07:31:03;;;;;;;6.18;5.57;;;29.50;99.90;;;;;;5054528;28;20032;-67
2023/06/16 07:33:29;;;;;;;8.85;5.55;;;29.00;99.90;;;;;;5054815;28;20032;-67
2023/06/16 07:35:54;;;;;;;7.82;5.70;;;28.40;99.90;;;;;;5054664;28;20391;-67
2023/06/16 07:38:20;;;;;;;8.80;5.57;;;28.20;99.90;;;;;;5054648;28;20103;-67
2023/06/16 07:40:46;;;;;;;6.80;5.82;;;28.10;99.90;;;;;;5054377;28;20029;-67
2023/06/16 07:43:11;;;;;;;6.25;5.65;;;27.20;99.90;;;;;;5055080;28;20025;-67
2023/06/16 07:45:37;;;;;;;6.80;6.10;;;26.40;99.90;;;;;;5054315;28;20028;-67
2023/06/16 07:48:04;;;;;;;8.98;6.28;;;26.70;99.90;;;;;;5054123;28;20037;-67
2023/06/16 07:50:29;;;;;;;8.98;6.00;;;27.40;99.90;;;;;;5054343;28;20029;-67
2023/06/16 07:52:55;;;;;;;6.95;5.18;;;27.70;99.90;;;;;;5054307;28;20024;-67
2023/06/16 07:55:21;;;;;;;5.78;4.70;;;28.20;99.90;;;;;;5054424;28;20043;-67
2023/06/16 07:57:47;;;;;;;6.38;4.97;;;28.70;99.90;;;;;;5054045;28;20450;-67
2023/06/16 08:00:14;;;;;;;8.25;4.65;;;28.80;99.90;;;;;;5053848;28;20056;-67
2023/06/16 08:02:41;;;;;;;7.43;4.80;;;29.50;99.90;;;;;;5052781;28;20057;-67
2023/06/16 08:05:08;;;;;;;6.30;5.10;;;29.50;99.90;;;;;;5053924;28;20036;-67
2023/06/16 08:07:35;;;;;;;6.30;4.75;;;29.40;99.90;;;;;;5053626;28;20044;-67
2023/06/16 08:10:01;;;;;;;6.70;5.03;;;29.30;99.90;;;;;;5052604;28;20025;-67
2023/06/16 08:12:26;;;;;;;5.95;5.25;;;29.20;99.90;;;;;;5053821;28;20040;-67
2023/06/16 08:14:52;;;;;;;5.80;5.30;;;28.90;99.90;;;;;;5053914;28;20131;-67
2023/06/16 08:17:17;;;;;;;5.85;5.25;;;28.30;99.90;;;;;;5053273;28;20036;-67
2023/06/16 08:19:43;;;;;;;7.32;4.70;;;28.80;99.90;;;;;;5053538;28;20029;-67
2023/06/16 08:22:08;;;;;;;5.88;4.90;;;29.10;99.90;;;;;;5053662;28;20029;-67
2023/06/16 08:24:34;;;;;;;5.32;4.40;;;29.30;99.90;;;;;;5053711;28;20036;-67
2023/06/16 08:27:00;;;;;;;7.03;4.22;;;30.60;99.90;;;;;;5053605;28;20025;-67
2023/06/16 08:29:30;;;;;;;5.43;4.55;;;30.90;99.90;;;;;;5053427;28;20036;-68
2023/06/16 08:31:56;;;;;;;6.97;4.70;;;31.00;99.90;;;;;;5053566;28;20047;-67
2023/06/16 08:34:22;;;;;;;11.95;5.22;;;30.50;99.90;;;;;;5053576;28;20478;-66
2023/06/16 08:36:47;;;;;;;6.10;4.38;;;30.00;99.90;;;;;;5053318;28;20106;-66
2023/06/16 08:39:13;;;;;;;5.05;4.60;;;30.00;99.90;;;;;;5053320;28;20505;-66
2023/06/16 08:41:40;;;;;;;6.65;4.75;;;29.60;99.90;;;;;;5053342;28;20035;-66
2023/06/16 08:44:08;;;;;;;10.35;4.45;;;29.00;99.90;;;;;;5053376;28;20025;-67
2023/06/16 08:46:34;;;;;;;7.07;4.65;;;29.00;99.90;;;;;;5053473;28;20546;-67
2023/06/16 08:48:59;;;;;;;6.07;4.40;;;29.70;99.90;;;;;;5052090;28;20107;-67
2023/06/16 08:51:27;;;;;;;5.60;4.20;;;30.80;99.90;;;;;;5053230;28;20060;-67
2023/06/16 08:54:00;;;;;;;5.05;4.53;;;30.10;99.90;;;;;;5053349;28;20021;-67
2023/06/16 08:56:31;;;;;;;7.32;5.25;;;30.00;99.90;;;;;;5053380;28;20032;-67
2023/06/16 08:58:58;;;;;;;6.25;4.18;;;29.90;99.90;;;;;;5053235;28;20541;-67
2023/06/16 09:01:25;;;;;;;5.63;4.20;;;29.70;99.90;;;;;;5053050;28;20033;-68
2023/06/16 09:03:52;;;;;;;6.72;4.70;;;30.30;99.90;;;;;;5053150;28;20032;-68
2023/06/16 09:06:20;;;;;;;6.13;4.90;;;28.90;99.90;;;;;;5052992;28;20029;-67
2023/06/16 09:08:46;;;;;;;5.85;4.40;;;29.10;99.90;;;;;;5052591;28;20546;-67
2023/06/16 09:11:11;;;;;;;7.25;4.43;;;29.90;1.00;;;;;;5053101;28;20064;-67
2023/06/16 09:13:44;;;;;;;8.73;4.50;;;30.60;99.90;;;;;;5053036;28;20067;-67
2023/06/16 09:16:14;;;;;;;;;;;30.00;99.90;;;;;;5053274;28;20025;-67
2023/06/16 09:18:44;;;;;;;11.05;4.75;;;30.30;99.90;;;;;;5052783;28;20362;-67
2023/06/16 09:21:11;;;;;;;5.88;4.47;;;30.20;99.90;;;;;;5052789;28;20021;-67
2023/06/16 09:23:38;;;;;;;5.50;4.30;;;30.30;99.90;;;;;;5052863;28;20033;-67
2023/06/16 09:26:12;;;;;;;4.88;3.80;;;30.80;99.90;;;;;;5052991;28;20455;-67
2023/06/16 09:28:39;;;;;;;7.57;4.43;;;31.10;99.90;;;;;;5052505;28;20032;-67
2023/06/16 09:31:07;;;;;;;4.53;4.13;;;29.70;99.90;;;;;;5056630;28;20021;-67
2023/06/16 09:33:34;;;;;;;5.38;4.38;;;30.00;99.90;;;;;;5057048;28;20104;-67
2023/06/16 09:36:00;;;;;;;6.10;4.50;;;30.40;99.90;;;;;;5056826;28;20076;-67
2023/06/16 09:38:28;;;;;;;5.43;4.93;;;31.10;99.90;;;;;;5056837;28;20102;-67
2023/06/16 09:41:06;;;;;;;7.07;4.00;;;30.50;99.90;;;;;;5056824;28;20562;-67
2023/06/16 09:43:31;;;;;;;5.35;4.07;;;30.00;99.90;;;;;;5056708;28;20074;-67
2023/06/16 09:45:57;;;;;;;7.20;4.70;;;28.80;99.90;;;;;;5056548;28;20036;-67
2023/06/16 09:48:25;;;;;;;6.65;4.50;;;28.50;99.90;;;;;;5056303;28;20053;-67
2023/06/16 09:50:53;;;;;;;7.60;4.28;;;28.90;99.90;;;;;;5056287;28;20082;-68
2023/06/16 09:53:22;;;;;;;6.93;4.50;;;28.60;99.90;;;;;;5056105;28;20113;-67
2023/06/16 09:55:49;;;;;;;6.40;4.32;;;28.40;99.90;;;;;;5056493;28;20029;-67
2023/06/16 09:58:15;;;;;;;5.13;4.57;;;29.20;99.90;;;;;;5056519;28;20025;-67
2023/06/16 10:00:41;;;;;;;5.88;4.60;;;30.60;99.90;;;;;;5056248;28;20024;-67
2023/06/16 10:03:08;;;;;;;8.25;4.20;;;30.10;99.90;;;;;;5056016;28;20029;-67
2023/06/16 10:05:35;;;;;;;8.20;4.30;;;30.80;99.90;;;;;;5056250;28;20033;-69
2023/06/16 10:08:04;;;;;;;5.95;4.13;;;30.70;99.90;;;;;;5055976;28;20502;-67
2023/06/16 10:10:32;;;;;;;5.85;3.88;;;30.20;99.90;;;;;;5056265;28;20028;-69
2023/06/16 10:13:00;;;;;;;4.72;4.07;;;30.00;99.90;;;;;;5056209;28;20032;-68
2023/06/16 10:15:27;;;;;;;7.55;4.28;;;30.20;99.90;;;;;;5056256;28;20387;-68
2023/06/16 10:17:57;;;;;;;5.30;3.88;;;29.70;99.90;;;;;;5056149;28;20394;-69
2023/06/16 10:20:25;;;;;;;5.95;4.10;;;30.60;99.90;;;;;;5056216;28;20035;-68
2023/06/16 10:22:51;;;;;;;10.07;4.47;;;30.10;99.90;;;;;;5056042;28;20052;-68
2023/06/16 10:25:18;;;;;;;5.53;4.28;;;29.90;99.90;;;;;;5055889;28;20457;-68
2023/06/16 10:27:44;;;;;;;5.13;3.95;;;30.50;99.90;;;;;;5055927;28;20120;-68
2023/06/16 10:30:16;;;;;;;6.75;4.75;;;29.80;99.90;;;;;;5055737;28;20116;-68
2023/06/16 10:32:48;;;;;;;6.60;4.40;;;30.20;99.90;;;;;;5055855;28;20435;-68
2023/06/16 10:35:15;;;;;;;5.63;4.45;;;30.90;99.90;;;;;;5055823;28;20037;-68
2023/06/16 10:37:41;;;;;;;7.90;4.55;;;30.50;99.90;;;;;;5055733;28;20036;-68
2023/06/16 10:40:10;;;;;;;5.05;4.40;;;29.80;99.90;;;;;;5055010;28;20572;-68
2023/06/16 10:42:38;;;;;;;7.13;4.50;;;29.90;99.90;;;;;;5055613;28;20068;-68
2023/06/16 10:45:29;;;;;;;5.32;4.15;;;30.00;99.90;;;;;;5055426;28;20067;-67
2023/06/16 10:47:57;;;;;;;8.60;4.90;;;30.20;99.90;;;;;;5055404;28;20075;-67
2023/06/16 10:50:40;;;;;;;8.05;4.40;;;29.30;99.90;;;;;;5055723;28;20471;-67
2023/06/16 10:53:11;;;;;;;7.15;4.03;;;29.10;99.90;;;;;;5055558;28;20028;-67
2023/06/16 10:55:39;;;;;;;4.55;4.15;;;29.40;99.90;;;;;;5055494;28;20029;-67
2023/06/16 10:58:26;;;;;;;7.60;4.72;;;29.30;99.90;;;;;;5055475;28;20494;-67
2023/06/16 11:03:43;;;;;;;8.45;4.63;;;28.80;99.90;;;;;;5111035;27;20174;-68
2023/06/16 11:06:10;;;;;;;5.07;4.40;;;28.10;99.90;;;;;;5111136;28;20397;-68
2023/06/16 11:08:55;;;;;;;7.25;4.68;;;28.60;99.90;;;;;;5110778;28;20020;-68
2023/06/16 11:11:22;;;;;;;7.13;5.25;;;28.90;99.90;;;;;;5109966;28;20023;-68
2023/06/16 11:13:48;;;;;;;6.60;4.60;;;28.70;99.90;;;;;;5111125;28;20487;-68
2023/06/16 11:16:13;;;;;;;6.65;4.68;;;28.60;99.90;;;;;;5111018;28;20022;-68
2023/06/16 11:18:39;;;;;;;4.70;4.30;;;28.90;99.90;;;;;;5110022;28;20361;-68
2023/06/16 11:21:06;;;;;;;6.30;4.47;;;29.00;99.90;;;;;;5110409;28;20111;-67
2023/06/16 11:23:33;;;;;;;5.88;4.40;;;28.50;99.90;;;;;;5110552;28;20024;-67
2023/06/16 11:26:07;;;;;;;6.35;4.57;;;28.70;99.90;;;;;;5110900;28;20051;-66
2023/06/16 11:28:33;;;;;;;5.60;4.55;;;29.30;99.90;;;;;;5110695;28;20058;-67
2023/06/16 11:31:01;;;;;;;7.78;4.50;;;29.30;99.90;;;;;;5110612;28;20450;-66
2023/06/16 11:33:32;;;;;;;4.68;4.20;;;29.10;99.90;;;;;;5110341;28;20106;-67
2023/06/16 11:36:12;;;;;;;4.97;4.47;;;29.00;99.90;;;;;;5110103;28;20210;-67
2023/06/16 11:38:41;;;;;;;6.28;4.47;;;29.20;99.90;;;;;;5110637;28;20394;-68
2023/06/16 11:41:18;;;;;;;6.85;3.92;;;29.00;99.90;;;;;;5110616;28;20032;-68
2023/06/16 11:43:44;;;;;;;5.03;4.53;;;29.30;99.90;;;;;;5110265;28;20028;-68
2023/06/16 11:46:10;;;;;;;6.22;5.10;;;29.30;99.90;;;;;;5110479;28;20035;-67
2023/06/16 11:48:37;;;;;;;5.05;4.55;;;29.10;99.90;;;;;;5110232;28;20035;-67
2023/06/16 11:51:04;;;;;;;5.20;4.65;;;29.20;99.90;;;;;;5110014;28;20027;-68
2023/06/16 11:53:31;;;;;;;5.63;4.53;;;29.10;99.90;;;;;;5110349;28;20096;-68
2023/06/16 11:55:59;;;;;;;9.07;4.70;;;28.70;99.90;;;;;;5110132;28;20481;-68
2023/06/16 11:58:26;;;;;;;9.23;4.38;;;28.60;99.90;;;;;;5110352;28;20051;-67
2023/06/16 12:00:54;;;;;;;8.40;4.50;;;28.60;99.90;;;;;;5109855;28;20430;-69
2023/06/16 12:03:21;;;;;;;7.85;4.28;;;28.80;99.90;;;;;;5109629;28;20058;-68
2023/06/16 12:05:47;;;;;;;6.32;4.15;;;28.80;99.90;;;;;;5109995;28;20480;-68
2023/06/16 12:08:12;;;;;;;4.75;4.35;;;28.90;99.90;;;;;;5110039;28;20059;-68
2023/06/16 12:10:53;;;;;;;6.28;4.57;;;28.80;99.90;;;;;;5110095;28;20024;-68
2023/06/16 12:13:19;;;;;;;5.95;4.50;;;28.80;99.90;;;;;;5105717;28;20148;-68
2023/06/16 12:15:44;;;;;;;5.88;4.50;;;29.30;99.90;;;;;;5096080;28;20107;-68
2023/06/16 12:18:10;;;;;;;5.88;4.43;;;28.70;99.90;;;;;;5096327;28;20036;-68
2023/06/16 12:20:39;;;;;;;9.27;4.75;;;29.10;99.90;;;;;;5075952;28;20031;-68
2023/06/16 12:23:10;;;;;;;6.75;4.38;;;29.10;99.90;;;;;;5075659;28;20447;-67
2023/06/16 12:25:36;;;;;;;9.35;4.72;;;29.10;99.90;;;;;;5075917;28;20039;-67
2023/06/16 12:28:03;;;;;;;9.10;5.03;;;29.00;99.90;;;;;;5075887;28;20033;-68
2023/06/16 12:30:33;;;;;;;6.43;4.75;;;28.80;99.90;;;;;;5075545;28;20023;-67
2023/06/16 12:33:08;;;;;;;5.30;4.45;;;28.80;99.90;;;;;;5075188;28;20390;-68
2023/06/16 12:35:33;;;;;;;5.50;4.88;;;29.10;99.90;;;;;;5075563;28;20031;-68
2023/06/16 12:37:59;;;;;;;5.38;4.50;;;29.30;99.90;;;;;;5075773;28;20024;-68
2023/06/16 12:40:28;;;;;;;7.10;4.15;;;29.40;99.90;;;;;;5075491;28;20046;-68
2023/06/16 12:42:54;;;;;;;5.15;4.55;;;29.60;99.90;;;;;;5075279;28;20493;-68
2023/06/16 12:45:20;;;;;;;4.82;4.38;;;29.50;99.90;;;;;;5075448;28;20044;-69
2023/06/16 12:47:45;;;;;;;5.68;4.53;;;29.30;99.90;;;;;;5075422;28;20024;-68
2023/06/16 12:50:11;;;;;;;7.15;4.63;;;29.40;99.90;;;;;;5075207;28;20021;-67
2023/06/16 12:52:36;;;;;;;6.80;4.45;;;28.90;99.90;;;;;;5074281;28;20033;-68